<?xml version="1.0" encoding="UTF-8" standalone="no" ?>
<gpx xmlns="http://www.topografix.com/GPX/1/1" xmlns:xsi="http://www.w3.org/2001/XMLSchema-instance" xsi:schemaLocation="http://www.topografix.com/GPX/1/1 http://www.topografix.com/GPX/1/1/gpx.xsd" version="1.1" creator="VisuGPX - https://www.visugpx.com">
  <metadata>
    <name>83 - V - Lorgues  Nord </name>
    <desc><![CDATA[83 - V - Lorgues Nord : Pardiguière
2022-11-11]]></desc>
  </metadata>
  <trk>
    <name><![CDATA[Lorgues  Nord 11-11-22]]></name>
    <desc><![CDATA[comment ...]]></desc>
    <trkseg>
      <trkpt lat="43.50086" lon="6.37444">
        <ele>265</ele>
        <time>2022-11-11T12:43:09Z</time>
      </trkpt>
      <trkpt lat="43.50087" lon="6.37444">
        <ele>266</ele>
        <time>2022-11-11T12:43:10Z</time>
      </trkpt>
      <trkpt lat="43.50088" lon="6.37449">
        <ele>266</ele>
        <time>2022-11-11T12:43:14Z</time>
      </trkpt>
      <trkpt lat="43.50088" lon="6.37455">
        <ele>272</ele>
        <time>2022-11-11T12:43:17Z</time>
      </trkpt>
      <trkpt lat="43.50092" lon="6.37464">
        <ele>276</ele>
        <time>2022-11-11T12:43:25Z</time>
      </trkpt>
      <trkpt lat="43.50094" lon="6.37469">
        <ele>274</ele>
        <time>2022-11-11T12:43:30Z</time>
      </trkpt>
      <trkpt lat="43.50096" lon="6.37474">
        <ele>273</ele>
        <time>2022-11-11T12:43:34Z</time>
      </trkpt>
      <trkpt lat="43.50099" lon="6.37478">
        <ele>271</ele>
        <time>2022-11-11T12:43:38Z</time>
      </trkpt>
      <trkpt lat="43.501" lon="6.37483">
        <ele>271</ele>
        <time>2022-11-11T12:43:42Z</time>
      </trkpt>
      <trkpt lat="43.50105" lon="6.37492">
        <ele>270</ele>
        <time>2022-11-11T12:43:50Z</time>
      </trkpt>
      <trkpt lat="43.50106" lon="6.37497">
        <ele>269</ele>
        <time>2022-11-11T12:43:55Z</time>
      </trkpt>
      <trkpt lat="43.50112" lon="6.37511">
        <ele>265</ele>
        <time>2022-11-11T12:44:08Z</time>
      </trkpt>
      <trkpt lat="43.50112" lon="6.37516">
        <ele>264</ele>
        <time>2022-11-11T12:44:11Z</time>
      </trkpt>
      <trkpt lat="43.50121" lon="6.37541">
        <ele>265</ele>
        <time>2022-11-11T12:44:28Z</time>
      </trkpt>
      <trkpt lat="43.50126" lon="6.37553">
        <ele>265</ele>
        <time>2022-11-11T12:44:37Z</time>
      </trkpt>
      <trkpt lat="43.50131" lon="6.37563">
        <ele>263</ele>
        <time>2022-11-11T12:44:47Z</time>
      </trkpt>
      <trkpt lat="43.50138" lon="6.37572">
        <ele>262</ele>
        <time>2022-11-11T12:44:56Z</time>
      </trkpt>
      <trkpt lat="43.50147" lon="6.37588">
        <ele>260</ele>
        <time>2022-11-11T12:45:11Z</time>
      </trkpt>
      <trkpt lat="43.50155" lon="6.376">
        <ele>259</ele>
        <time>2022-11-11T12:45:23Z</time>
      </trkpt>
      <trkpt lat="43.50161" lon="6.37608">
        <ele>259</ele>
        <time>2022-11-11T12:45:32Z</time>
      </trkpt>
      <trkpt lat="43.50163" lon="6.37612">
        <ele>259</ele>
        <time>2022-11-11T12:45:36Z</time>
      </trkpt>
      <trkpt lat="43.50165" lon="6.37616">
        <ele>259</ele>
        <time>2022-11-11T12:45:40Z</time>
      </trkpt>
      <trkpt lat="43.50171" lon="6.37623">
        <ele>256</ele>
        <time>2022-11-11T12:45:48Z</time>
      </trkpt>
      <trkpt lat="43.50173" lon="6.37626">
        <ele>257</ele>
        <time>2022-11-11T12:45:51Z</time>
      </trkpt>
      <trkpt lat="43.50181" lon="6.37637">
        <ele>256</ele>
        <time>2022-11-11T12:46:03Z</time>
      </trkpt>
      <trkpt lat="43.50185" lon="6.37641">
        <ele>256</ele>
        <time>2022-11-11T12:46:07Z</time>
      </trkpt>
      <trkpt lat="43.50188" lon="6.37649">
        <ele>256</ele>
        <time>2022-11-11T12:46:17Z</time>
      </trkpt>
      <trkpt lat="43.50191" lon="6.37662">
        <ele>255</ele>
        <time>2022-11-11T12:46:28Z</time>
      </trkpt>
      <trkpt lat="43.50193" lon="6.3767">
        <ele>256</ele>
        <time>2022-11-11T12:46:36Z</time>
      </trkpt>
      <trkpt lat="43.50193" lon="6.37681">
        <ele>255</ele>
        <time>2022-11-11T12:46:45Z</time>
      </trkpt>
      <trkpt lat="43.50192" lon="6.37685">
        <ele>253</ele>
        <time>2022-11-11T12:46:49Z</time>
      </trkpt>
      <trkpt lat="43.50192" lon="6.3769">
        <ele>253</ele>
        <time>2022-11-11T12:46:53Z</time>
      </trkpt>
      <trkpt lat="43.50193" lon="6.37695">
        <ele>253</ele>
        <time>2022-11-11T12:46:57Z</time>
      </trkpt>
      <trkpt lat="43.50193" lon="6.37712">
        <ele>255</ele>
        <time>2022-11-11T12:47:11Z</time>
      </trkpt>
      <trkpt lat="43.50194" lon="6.37717">
        <ele>254</ele>
        <time>2022-11-11T12:47:16Z</time>
      </trkpt>
      <trkpt lat="43.50196" lon="6.37727">
        <ele>255</ele>
        <time>2022-11-11T12:47:27Z</time>
      </trkpt>
      <trkpt lat="43.50197" lon="6.37731">
        <ele>255</ele>
        <time>2022-11-11T12:47:31Z</time>
      </trkpt>
      <trkpt lat="43.50207" lon="6.37766">
        <ele>247</ele>
        <time>2022-11-11T12:48:02Z</time>
      </trkpt>
      <trkpt lat="43.50211" lon="6.37777">
        <ele>246</ele>
        <time>2022-11-11T12:48:11Z</time>
      </trkpt>
      <trkpt lat="43.50213" lon="6.37799">
        <ele>247</ele>
        <time>2022-11-11T12:48:27Z</time>
      </trkpt>
      <trkpt lat="43.50215" lon="6.37804">
        <ele>246</ele>
        <time>2022-11-11T12:48:31Z</time>
      </trkpt>
      <trkpt lat="43.50215" lon="6.37809">
        <ele>246</ele>
        <time>2022-11-11T12:48:35Z</time>
      </trkpt>
      <trkpt lat="43.50215" lon="6.37826">
        <ele>248</ele>
        <time>2022-11-11T12:48:47Z</time>
      </trkpt>
      <trkpt lat="43.50215" lon="6.37831">
        <ele>247</ele>
        <time>2022-11-11T12:48:51Z</time>
      </trkpt>
      <trkpt lat="43.50217" lon="6.37841">
        <ele>247</ele>
        <time>2022-11-11T12:48:58Z</time>
      </trkpt>
      <trkpt lat="43.50218" lon="6.37847">
        <ele>247</ele>
        <time>2022-11-11T12:49:01Z</time>
      </trkpt>
      <trkpt lat="43.50219" lon="6.37861">
        <ele>244</ele>
        <time>2022-11-11T12:49:12Z</time>
      </trkpt>
      <trkpt lat="43.50221" lon="6.37873">
        <ele>244</ele>
        <time>2022-11-11T12:49:22Z</time>
      </trkpt>
      <trkpt lat="43.50223" lon="6.37887">
        <ele>240</ele>
        <time>2022-11-11T12:49:32Z</time>
      </trkpt>
      <trkpt lat="43.50223" lon="6.37899">
        <ele>239</ele>
        <time>2022-11-11T12:49:41Z</time>
      </trkpt>
      <trkpt lat="43.50227" lon="6.37911">
        <ele>242</ele>
        <time>2022-11-11T12:49:50Z</time>
      </trkpt>
      <trkpt lat="43.50234" lon="6.37919">
        <ele>244</ele>
        <time>2022-11-11T12:50:01Z</time>
      </trkpt>
      <trkpt lat="43.50242" lon="6.37926">
        <ele>247</ele>
        <time>2022-11-11T12:50:14Z</time>
      </trkpt>
      <trkpt lat="43.50248" lon="6.37935">
        <ele>250</ele>
        <time>2022-11-11T12:50:27Z</time>
      </trkpt>
      <trkpt lat="43.50252" lon="6.3794">
        <ele>249</ele>
        <time>2022-11-11T12:50:57Z</time>
      </trkpt>
      <trkpt lat="43.50256" lon="6.37941">
        <ele>248</ele>
        <time>2022-11-11T12:51:12Z</time>
      </trkpt>
      <trkpt lat="43.50258" lon="6.37946">
        <ele>248</ele>
        <time>2022-11-11T12:51:23Z</time>
      </trkpt>
      <trkpt lat="43.50261" lon="6.37948">
        <ele>247</ele>
        <time>2022-11-11T12:51:29Z</time>
      </trkpt>
      <trkpt lat="43.50263" lon="6.37952">
        <ele>248</ele>
        <time>2022-11-11T12:51:38Z</time>
      </trkpt>
      <trkpt lat="43.50265" lon="6.37957">
        <ele>248</ele>
        <time>2022-11-11T12:51:42Z</time>
      </trkpt>
      <trkpt lat="43.50268" lon="6.3796">
        <ele>248</ele>
        <time>2022-11-11T12:51:48Z</time>
      </trkpt>
      <trkpt lat="43.5027" lon="6.37964">
        <ele>246</ele>
        <time>2022-11-11T12:51:55Z</time>
      </trkpt>
      <trkpt lat="43.50273" lon="6.37968">
        <ele>244</ele>
        <time>2022-11-11T12:52:02Z</time>
      </trkpt>
      <trkpt lat="43.50275" lon="6.37979">
        <ele>238</ele>
        <time>2022-11-11T12:52:15Z</time>
      </trkpt>
      <trkpt lat="43.50275" lon="6.37984">
        <ele>237</ele>
        <time>2022-11-11T12:52:20Z</time>
      </trkpt>
      <trkpt lat="43.50276" lon="6.37994">
        <ele>236</ele>
        <time>2022-11-11T12:52:30Z</time>
      </trkpt>
      <trkpt lat="43.50275" lon="6.37999">
        <ele>237</ele>
        <time>2022-11-11T12:52:35Z</time>
      </trkpt>
      <trkpt lat="43.50276" lon="6.38026">
        <ele>239</ele>
        <time>2022-11-11T12:52:57Z</time>
      </trkpt>
      <trkpt lat="43.50277" lon="6.38031">
        <ele>239</ele>
        <time>2022-11-11T12:53:01Z</time>
      </trkpt>
      <trkpt lat="43.50278" lon="6.38036">
        <ele>238</ele>
        <time>2022-11-11T12:53:06Z</time>
      </trkpt>
      <trkpt lat="43.50278" lon="6.38041">
        <ele>238</ele>
        <time>2022-11-11T12:53:12Z</time>
      </trkpt>
      <trkpt lat="43.50278" lon="6.38047">
        <ele>237</ele>
        <time>2022-11-11T12:53:18Z</time>
      </trkpt>
      <trkpt lat="43.50283" lon="6.38077">
        <ele>238</ele>
        <time>2022-11-11T12:53:42Z</time>
      </trkpt>
      <trkpt lat="43.50287" lon="6.38091">
        <ele>235</ele>
        <time>2022-11-11T12:53:56Z</time>
      </trkpt>
      <trkpt lat="43.50294" lon="6.38116">
        <ele>235</ele>
        <time>2022-11-11T12:54:19Z</time>
      </trkpt>
      <trkpt lat="43.50298" lon="6.38141">
        <ele>233</ele>
        <time>2022-11-11T12:54:41Z</time>
      </trkpt>
      <trkpt lat="43.50302" lon="6.38152">
        <ele>234</ele>
        <time>2022-11-11T12:54:52Z</time>
      </trkpt>
      <trkpt lat="43.5031" lon="6.38175">
        <ele>232</ele>
        <time>2022-11-11T12:55:12Z</time>
      </trkpt>
      <trkpt lat="43.50317" lon="6.38185">
        <ele>233</ele>
        <time>2022-11-11T12:55:24Z</time>
      </trkpt>
      <trkpt lat="43.50326" lon="6.38191">
        <ele>234</ele>
        <time>2022-11-11T12:55:36Z</time>
      </trkpt>
      <trkpt lat="43.50335" lon="6.38193">
        <ele>234</ele>
        <time>2022-11-11T12:55:48Z</time>
      </trkpt>
      <trkpt lat="43.5034" lon="6.38203">
        <ele>235</ele>
        <time>2022-11-11T12:55:57Z</time>
      </trkpt>
      <trkpt lat="43.50352" lon="6.38224">
        <ele>236</ele>
        <time>2022-11-11T12:56:11Z</time>
      </trkpt>
      <trkpt lat="43.50357" lon="6.38236">
        <ele>235</ele>
        <time>2022-11-11T12:56:20Z</time>
      </trkpt>
      <trkpt lat="43.50363" lon="6.38246">
        <ele>235</ele>
        <time>2022-11-11T12:56:29Z</time>
      </trkpt>
      <trkpt lat="43.50371" lon="6.38256">
        <ele>233</ele>
        <time>2022-11-11T12:56:38Z</time>
      </trkpt>
      <trkpt lat="43.5038" lon="6.38258">
        <ele>235</ele>
        <time>2022-11-11T12:56:47Z</time>
      </trkpt>
      <trkpt lat="43.50387" lon="6.38249">
        <ele>237</ele>
        <time>2022-11-11T12:56:56Z</time>
      </trkpt>
      <trkpt lat="43.5039" lon="6.38239">
        <ele>241</ele>
        <time>2022-11-11T12:57:25Z</time>
      </trkpt>
      <trkpt lat="43.50392" lon="6.38236">
        <ele>239</ele>
        <time>2022-11-11T12:58:53Z</time>
      </trkpt>
      <trkpt lat="43.50397" lon="6.38228">
        <ele>241</ele>
        <time>2022-11-11T12:59:09Z</time>
      </trkpt>
      <trkpt lat="43.50402" lon="6.38221">
        <ele>241</ele>
        <time>2022-11-11T12:59:18Z</time>
      </trkpt>
      <trkpt lat="43.50407" lon="6.38212">
        <ele>238</ele>
        <time>2022-11-11T12:59:28Z</time>
      </trkpt>
      <trkpt lat="43.5041" lon="6.3821">
        <ele>237</ele>
        <time>2022-11-11T12:59:32Z</time>
      </trkpt>
      <trkpt lat="43.50413" lon="6.38207">
        <ele>239</ele>
        <time>2022-11-11T12:59:36Z</time>
      </trkpt>
      <trkpt lat="43.50418" lon="6.382">
        <ele>240</ele>
        <time>2022-11-11T12:59:45Z</time>
      </trkpt>
      <trkpt lat="43.50421" lon="6.38195">
        <ele>243</ele>
        <time>2022-11-11T12:59:50Z</time>
      </trkpt>
      <trkpt lat="43.50423" lon="6.38191">
        <ele>245</ele>
        <time>2022-11-11T12:59:55Z</time>
      </trkpt>
      <trkpt lat="43.50424" lon="6.38186">
        <ele>245</ele>
        <time>2022-11-11T13:00:02Z</time>
      </trkpt>
      <trkpt lat="43.50429" lon="6.38186">
        <ele>245</ele>
        <time>2022-11-11T13:00:06Z</time>
      </trkpt>
      <trkpt lat="43.50432" lon="6.38186">
        <ele>245</ele>
        <time>2022-11-11T13:00:10Z</time>
      </trkpt>
      <trkpt lat="43.50436" lon="6.38188">
        <ele>246</ele>
        <time>2022-11-11T13:00:15Z</time>
      </trkpt>
      <trkpt lat="43.50444" lon="6.3819">
        <ele>246</ele>
        <time>2022-11-11T13:00:24Z</time>
      </trkpt>
      <trkpt lat="43.50457" lon="6.38194">
        <ele>245</ele>
        <time>2022-11-11T13:00:36Z</time>
      </trkpt>
      <trkpt lat="43.50464" lon="6.38196">
        <ele>245</ele>
        <time>2022-11-11T13:00:44Z</time>
      </trkpt>
      <trkpt lat="43.50465" lon="6.38201">
        <ele>245</ele>
        <time>2022-11-11T13:00:47Z</time>
      </trkpt>
      <trkpt lat="43.50468" lon="6.38204">
        <ele>246</ele>
        <time>2022-11-11T13:00:51Z</time>
      </trkpt>
      <trkpt lat="43.50487" lon="6.38203">
        <ele>244</ele>
        <time>2022-11-11T13:01:12Z</time>
      </trkpt>
      <trkpt lat="43.5049" lon="6.38205">
        <ele>244</ele>
        <time>2022-11-11T13:01:16Z</time>
      </trkpt>
      <trkpt lat="43.50494" lon="6.38206">
        <ele>244</ele>
        <time>2022-11-11T13:01:21Z</time>
      </trkpt>
      <trkpt lat="43.50521" lon="6.38211">
        <ele>240</ele>
        <time>2022-11-11T13:01:50Z</time>
      </trkpt>
      <trkpt lat="43.50526" lon="6.38211">
        <ele>239</ele>
        <time>2022-11-11T13:01:54Z</time>
      </trkpt>
      <trkpt lat="43.5055" lon="6.38209">
        <ele>243</ele>
        <time>2022-11-11T13:02:20Z</time>
      </trkpt>
      <trkpt lat="43.50569" lon="6.38202">
        <ele>242</ele>
        <time>2022-11-11T13:02:38Z</time>
      </trkpt>
      <trkpt lat="43.50573" lon="6.382">
        <ele>240</ele>
        <time>2022-11-11T13:02:42Z</time>
      </trkpt>
      <trkpt lat="43.50576" lon="6.38199">
        <ele>240</ele>
        <time>2022-11-11T13:02:46Z</time>
      </trkpt>
      <trkpt lat="43.5058" lon="6.38197">
        <ele>241</ele>
        <time>2022-11-11T13:02:50Z</time>
      </trkpt>
      <trkpt lat="43.50588" lon="6.38191">
        <ele>244</ele>
        <time>2022-11-11T13:02:59Z</time>
      </trkpt>
      <trkpt lat="43.50597" lon="6.38187">
        <ele>246</ele>
        <time>2022-11-11T13:03:08Z</time>
      </trkpt>
      <trkpt lat="43.50601" lon="6.38181">
        <ele>245</ele>
        <time>2022-11-11T13:03:14Z</time>
      </trkpt>
      <trkpt lat="43.50605" lon="6.38178">
        <ele>246</ele>
        <time>2022-11-11T13:03:18Z</time>
      </trkpt>
      <trkpt lat="43.50608" lon="6.38174">
        <ele>247</ele>
        <time>2022-11-11T13:03:22Z</time>
      </trkpt>
      <trkpt lat="43.50626" lon="6.38153">
        <ele>249</ele>
        <time>2022-11-11T13:03:43Z</time>
      </trkpt>
      <trkpt lat="43.50629" lon="6.3815">
        <ele>248</ele>
        <time>2022-11-11T13:03:46Z</time>
      </trkpt>
      <trkpt lat="43.50631" lon="6.38146">
        <ele>246</ele>
        <time>2022-11-11T13:03:49Z</time>
      </trkpt>
      <trkpt lat="43.50651" lon="6.38107">
        <ele>250</ele>
        <time>2022-11-11T13:04:20Z</time>
      </trkpt>
      <trkpt lat="43.50663" lon="6.38082">
        <ele>247</ele>
        <time>2022-11-11T13:04:39Z</time>
      </trkpt>
      <trkpt lat="43.50669" lon="6.38068">
        <ele>243</ele>
        <time>2022-11-11T13:04:48Z</time>
      </trkpt>
      <trkpt lat="43.50677" lon="6.38056">
        <ele>240</ele>
        <time>2022-11-11T13:04:57Z</time>
      </trkpt>
      <trkpt lat="43.50679" lon="6.38051">
        <ele>241</ele>
        <time>2022-11-11T13:05:01Z</time>
      </trkpt>
      <trkpt lat="43.50684" lon="6.38044">
        <ele>241</ele>
        <time>2022-11-11T13:05:07Z</time>
      </trkpt>
      <trkpt lat="43.50687" lon="6.38039">
        <ele>238</ele>
        <time>2022-11-11T13:05:11Z</time>
      </trkpt>
      <trkpt lat="43.5069" lon="6.38036">
        <ele>237</ele>
        <time>2022-11-11T13:05:15Z</time>
      </trkpt>
      <trkpt lat="43.50694" lon="6.38034">
        <ele>236</ele>
        <time>2022-11-11T13:05:18Z</time>
      </trkpt>
      <trkpt lat="43.50696" lon="6.38029">
        <ele>236</ele>
        <time>2022-11-11T13:05:22Z</time>
      </trkpt>
      <trkpt lat="43.50699" lon="6.38025">
        <ele>234</ele>
        <time>2022-11-11T13:05:26Z</time>
      </trkpt>
      <trkpt lat="43.50702" lon="6.38022">
        <ele>234</ele>
        <time>2022-11-11T13:05:29Z</time>
      </trkpt>
      <trkpt lat="43.50706" lon="6.3802">
        <ele>231</ele>
        <time>2022-11-11T13:05:33Z</time>
      </trkpt>
      <trkpt lat="43.50709" lon="6.38017">
        <ele>231</ele>
        <time>2022-11-11T13:05:37Z</time>
      </trkpt>
      <trkpt lat="43.50714" lon="6.38015">
        <ele>230</ele>
        <time>2022-11-11T13:05:41Z</time>
      </trkpt>
      <trkpt lat="43.50717" lon="6.3801">
        <ele>229</ele>
        <time>2022-11-11T13:05:45Z</time>
      </trkpt>
      <trkpt lat="43.50721" lon="6.38007">
        <ele>231</ele>
        <time>2022-11-11T13:05:48Z</time>
      </trkpt>
      <trkpt lat="43.50728" lon="6.38001">
        <ele>231</ele>
        <time>2022-11-11T13:05:54Z</time>
      </trkpt>
      <trkpt lat="43.50749" lon="6.37986">
        <ele>233</ele>
        <time>2022-11-11T13:06:13Z</time>
      </trkpt>
      <trkpt lat="43.50753" lon="6.37984">
        <ele>232</ele>
        <time>2022-11-11T13:06:16Z</time>
      </trkpt>
      <trkpt lat="43.50757" lon="6.37983">
        <ele>233</ele>
        <time>2022-11-11T13:06:19Z</time>
      </trkpt>
      <trkpt lat="43.5076" lon="6.37982">
        <ele>235</ele>
        <time>2022-11-11T13:06:22Z</time>
      </trkpt>
      <trkpt lat="43.50764" lon="6.3798">
        <ele>237</ele>
        <time>2022-11-11T13:06:25Z</time>
      </trkpt>
      <trkpt lat="43.50767" lon="6.37979">
        <ele>238</ele>
        <time>2022-11-11T13:06:28Z</time>
      </trkpt>
      <trkpt lat="43.50772" lon="6.37977">
        <ele>238</ele>
        <time>2022-11-11T13:06:31Z</time>
      </trkpt>
      <trkpt lat="43.50776" lon="6.37977">
        <ele>235</ele>
        <time>2022-11-11T13:06:34Z</time>
      </trkpt>
      <trkpt lat="43.50784" lon="6.37977">
        <ele>233</ele>
        <time>2022-11-11T13:06:41Z</time>
      </trkpt>
      <trkpt lat="43.50788" lon="6.37976">
        <ele>235</ele>
        <time>2022-11-11T13:06:44Z</time>
      </trkpt>
      <trkpt lat="43.50791" lon="6.37975">
        <ele>234</ele>
        <time>2022-11-11T13:06:47Z</time>
      </trkpt>
      <trkpt lat="43.50795" lon="6.37975">
        <ele>235</ele>
        <time>2022-11-11T13:06:50Z</time>
      </trkpt>
      <trkpt lat="43.50799" lon="6.37975">
        <ele>233</ele>
        <time>2022-11-11T13:06:53Z</time>
      </trkpt>
      <trkpt lat="43.50802" lon="6.37975">
        <ele>231</ele>
        <time>2022-11-11T13:06:56Z</time>
      </trkpt>
      <trkpt lat="43.50806" lon="6.37975">
        <ele>229</ele>
        <time>2022-11-11T13:07:00Z</time>
      </trkpt>
      <trkpt lat="43.50818" lon="6.37975">
        <ele>233</ele>
        <time>2022-11-11T13:07:10Z</time>
      </trkpt>
      <trkpt lat="43.50837" lon="6.37981">
        <ele>233</ele>
        <time>2022-11-11T13:07:26Z</time>
      </trkpt>
      <trkpt lat="43.50841" lon="6.37982">
        <ele>229</ele>
        <time>2022-11-11T13:07:30Z</time>
      </trkpt>
      <trkpt lat="43.5085" lon="6.37982">
        <ele>229</ele>
        <time>2022-11-11T13:07:36Z</time>
      </trkpt>
      <trkpt lat="43.50853" lon="6.37983">
        <ele>231</ele>
        <time>2022-11-11T13:07:39Z</time>
      </trkpt>
      <trkpt lat="43.50857" lon="6.37987">
        <ele>234</ele>
        <time>2022-11-11T13:07:43Z</time>
      </trkpt>
      <trkpt lat="43.50864" lon="6.37992">
        <ele>234</ele>
        <time>2022-11-11T13:07:51Z</time>
      </trkpt>
      <trkpt lat="43.50871" lon="6.37996">
        <ele>235</ele>
        <time>2022-11-11T13:07:59Z</time>
      </trkpt>
      <trkpt lat="43.50875" lon="6.37999">
        <ele>235</ele>
        <time>2022-11-11T13:08:04Z</time>
      </trkpt>
      <trkpt lat="43.50878" lon="6.38002">
        <ele>233</ele>
        <time>2022-11-11T13:08:10Z</time>
      </trkpt>
      <trkpt lat="43.50881" lon="6.38006">
        <ele>236</ele>
        <time>2022-11-11T13:08:15Z</time>
      </trkpt>
      <trkpt lat="43.50886" lon="6.38008">
        <ele>236</ele>
        <time>2022-11-11T13:08:19Z</time>
      </trkpt>
      <trkpt lat="43.5089" lon="6.38009">
        <ele>236</ele>
        <time>2022-11-11T13:08:23Z</time>
      </trkpt>
      <trkpt lat="43.50898" lon="6.38006">
        <ele>237</ele>
        <time>2022-11-11T13:08:31Z</time>
      </trkpt>
      <trkpt lat="43.50913" lon="6.38">
        <ele>235</ele>
        <time>2022-11-11T13:08:46Z</time>
      </trkpt>
      <trkpt lat="43.50918" lon="6.38">
        <ele>235</ele>
        <time>2022-11-11T13:08:50Z</time>
      </trkpt>
      <trkpt lat="43.50922" lon="6.37999">
        <ele>235</ele>
        <time>2022-11-11T13:08:54Z</time>
      </trkpt>
      <trkpt lat="43.50926" lon="6.37997">
        <ele>235</ele>
        <time>2022-11-11T13:08:58Z</time>
      </trkpt>
      <trkpt lat="43.50945" lon="6.37992">
        <ele>233</ele>
        <time>2022-11-11T13:09:14Z</time>
      </trkpt>
      <trkpt lat="43.50954" lon="6.37988">
        <ele>231</ele>
        <time>2022-11-11T13:09:23Z</time>
      </trkpt>
      <trkpt lat="43.50964" lon="6.37983">
        <ele>235</ele>
        <time>2022-11-11T13:09:35Z</time>
      </trkpt>
      <trkpt lat="43.50973" lon="6.37984">
        <ele>237</ele>
        <time>2022-11-11T13:09:42Z</time>
      </trkpt>
      <trkpt lat="43.50982" lon="6.37984">
        <ele>240</ele>
        <time>2022-11-11T13:09:51Z</time>
      </trkpt>
      <trkpt lat="43.50991" lon="6.37979">
        <ele>241</ele>
        <time>2022-11-11T13:10:03Z</time>
      </trkpt>
      <trkpt lat="43.50994" lon="6.37975">
        <ele>240</ele>
        <time>2022-11-11T13:10:08Z</time>
      </trkpt>
      <trkpt lat="43.50997" lon="6.37976">
        <ele>240</ele>
        <time>2022-11-11T13:10:11Z</time>
      </trkpt>
      <trkpt lat="43.51" lon="6.37981">
        <ele>242</ele>
        <time>2022-11-11T13:10:15Z</time>
      </trkpt>
      <trkpt lat="43.50998" lon="6.37986">
        <ele>242</ele>
        <time>2022-11-11T13:10:19Z</time>
      </trkpt>
      <trkpt lat="43.50991" lon="6.37985">
        <ele>241</ele>
        <time>2022-11-11T13:11:44Z</time>
      </trkpt>
      <trkpt lat="43.50999" lon="6.37991">
        <ele>244</ele>
        <time>2022-11-11T13:13:24Z</time>
      </trkpt>
      <trkpt lat="43.51008" lon="6.37987">
        <ele>242</ele>
        <time>2022-11-11T13:13:41Z</time>
      </trkpt>
      <trkpt lat="43.51026" lon="6.3799">
        <ele>240</ele>
        <time>2022-11-11T13:14:11Z</time>
      </trkpt>
      <trkpt lat="43.51035" lon="6.37991">
        <ele>242</ele>
        <time>2022-11-11T13:14:26Z</time>
      </trkpt>
      <trkpt lat="43.51041" lon="6.37996">
        <ele>240</ele>
        <time>2022-11-11T13:14:36Z</time>
      </trkpt>
      <trkpt lat="43.51044" lon="6.37996">
        <ele>239</ele>
        <time>2022-11-11T13:14:44Z</time>
      </trkpt>
      <trkpt lat="43.51047" lon="6.37999">
        <ele>236</ele>
        <time>2022-11-11T13:14:52Z</time>
      </trkpt>
      <trkpt lat="43.51051" lon="6.38">
        <ele>237</ele>
        <time>2022-11-11T13:14:56Z</time>
      </trkpt>
      <trkpt lat="43.51055" lon="6.37998">
        <ele>238</ele>
        <time>2022-11-11T13:14:59Z</time>
      </trkpt>
      <trkpt lat="43.51059" lon="6.37998">
        <ele>237</ele>
        <time>2022-11-11T13:15:05Z</time>
      </trkpt>
      <trkpt lat="43.51062" lon="6.37997">
        <ele>238</ele>
        <time>2022-11-11T13:15:08Z</time>
      </trkpt>
      <trkpt lat="43.5107" lon="6.38001">
        <ele>237</ele>
        <time>2022-11-11T13:15:17Z</time>
      </trkpt>
      <trkpt lat="43.51074" lon="6.38004">
        <ele>236</ele>
        <time>2022-11-11T13:15:24Z</time>
      </trkpt>
      <trkpt lat="43.51077" lon="6.38007">
        <ele>234</ele>
        <time>2022-11-11T13:15:29Z</time>
      </trkpt>
      <trkpt lat="43.51081" lon="6.38006">
        <ele>234</ele>
        <time>2022-11-11T13:15:40Z</time>
      </trkpt>
      <trkpt lat="43.51085" lon="6.38009">
        <ele>238</ele>
        <time>2022-11-11T13:15:45Z</time>
      </trkpt>
      <trkpt lat="43.51088" lon="6.38012">
        <ele>239</ele>
        <time>2022-11-11T13:15:57Z</time>
      </trkpt>
      <trkpt lat="43.51092" lon="6.38013">
        <ele>240</ele>
        <time>2022-11-11T13:16:02Z</time>
      </trkpt>
      <trkpt lat="43.51102" lon="6.38017">
        <ele>236</ele>
        <time>2022-11-11T13:16:20Z</time>
      </trkpt>
      <trkpt lat="43.51121" lon="6.38016">
        <ele>234</ele>
        <time>2022-11-11T13:16:46Z</time>
      </trkpt>
      <trkpt lat="43.51137" lon="6.38">
        <ele>231</ele>
        <time>2022-11-11T13:17:23Z</time>
      </trkpt>
      <trkpt lat="43.51153" lon="6.37986">
        <ele>231</ele>
        <time>2022-11-11T13:17:47Z</time>
      </trkpt>
      <trkpt lat="43.51159" lon="6.37976">
        <ele>231</ele>
        <time>2022-11-11T13:18:02Z</time>
      </trkpt>
      <trkpt lat="43.51164" lon="6.37965">
        <ele>230</ele>
        <time>2022-11-11T13:18:14Z</time>
      </trkpt>
      <trkpt lat="43.51168" lon="6.37953">
        <ele>227</ele>
        <time>2022-11-11T13:18:34Z</time>
      </trkpt>
      <trkpt lat="43.51174" lon="6.37928">
        <ele>227</ele>
        <time>2022-11-11T13:19:00Z</time>
      </trkpt>
      <trkpt lat="43.51177" lon="6.37916">
        <ele>223</ele>
        <time>2022-11-11T13:19:24Z</time>
      </trkpt>
      <trkpt lat="43.51177" lon="6.37902">
        <ele>220</ele>
        <time>2022-11-11T13:19:34Z</time>
      </trkpt>
      <trkpt lat="43.51178" lon="6.3789">
        <ele>215</ele>
        <time>2022-11-11T13:19:46Z</time>
      </trkpt>
      <trkpt lat="43.51186" lon="6.37894">
        <ele>214</ele>
        <time>2022-11-11T13:19:56Z</time>
      </trkpt>
      <trkpt lat="43.51193" lon="6.37902">
        <ele>214</ele>
        <time>2022-11-11T13:20:09Z</time>
      </trkpt>
      <trkpt lat="43.51198" lon="6.37913">
        <ele>212</ele>
        <time>2022-11-11T13:20:20Z</time>
      </trkpt>
      <trkpt lat="43.51201" lon="6.37925">
        <ele>210</ele>
        <time>2022-11-11T13:20:32Z</time>
      </trkpt>
      <trkpt lat="43.5121" lon="6.37918">
        <ele>217</ele>
        <time>2022-11-11T13:23:20Z</time>
      </trkpt>
      <trkpt lat="43.51223" lon="6.37898">
        <ele>217</ele>
        <time>2022-11-11T13:23:40Z</time>
      </trkpt>
      <trkpt lat="43.51231" lon="6.37891">
        <ele>219</ele>
        <time>2022-11-11T13:23:48Z</time>
      </trkpt>
      <trkpt lat="43.5124" lon="6.37887">
        <ele>222</ele>
        <time>2022-11-11T13:23:57Z</time>
      </trkpt>
      <trkpt lat="43.51249" lon="6.3788">
        <ele>220</ele>
        <time>2022-11-11T13:24:06Z</time>
      </trkpt>
      <trkpt lat="43.51266" lon="6.37872">
        <ele>215</ele>
        <time>2022-11-11T13:24:23Z</time>
      </trkpt>
      <trkpt lat="43.51275" lon="6.37867">
        <ele>218</ele>
        <time>2022-11-11T13:24:32Z</time>
      </trkpt>
      <trkpt lat="43.51285" lon="6.37863">
        <ele>219</ele>
        <time>2022-11-11T13:24:40Z</time>
      </trkpt>
      <trkpt lat="43.51294" lon="6.37859">
        <ele>219</ele>
        <time>2022-11-11T13:24:48Z</time>
      </trkpt>
      <trkpt lat="43.5133" lon="6.37846">
        <ele>218</ele>
        <time>2022-11-11T13:25:20Z</time>
      </trkpt>
      <trkpt lat="43.5134" lon="6.37843">
        <ele>218</ele>
        <time>2022-11-11T13:25:29Z</time>
      </trkpt>
      <trkpt lat="43.51376" lon="6.37832">
        <ele>219</ele>
        <time>2022-11-11T13:26:01Z</time>
      </trkpt>
      <trkpt lat="43.51404" lon="6.37835">
        <ele>219</ele>
        <time>2022-11-11T13:26:26Z</time>
      </trkpt>
      <trkpt lat="43.51422" lon="6.37842">
        <ele>216</ele>
        <time>2022-11-11T13:26:44Z</time>
      </trkpt>
      <trkpt lat="43.51431" lon="6.37846">
        <ele>215</ele>
        <time>2022-11-11T13:26:55Z</time>
      </trkpt>
      <trkpt lat="43.51439" lon="6.37852">
        <ele>213</ele>
        <time>2022-11-11T13:27:04Z</time>
      </trkpt>
      <trkpt lat="43.51447" lon="6.37858">
        <ele>211</ele>
        <time>2022-11-11T13:27:12Z</time>
      </trkpt>
      <trkpt lat="43.5145" lon="6.37861">
        <ele>210</ele>
        <time>2022-11-11T13:27:15Z</time>
      </trkpt>
      <trkpt lat="43.51454" lon="6.37863">
        <ele>210</ele>
        <time>2022-11-11T13:27:18Z</time>
      </trkpt>
      <trkpt lat="43.51457" lon="6.37866">
        <ele>210</ele>
        <time>2022-11-11T13:27:22Z</time>
      </trkpt>
      <trkpt lat="43.51461" lon="6.3787">
        <ele>209</ele>
        <time>2022-11-11T13:27:26Z</time>
      </trkpt>
      <trkpt lat="43.51464" lon="6.37872">
        <ele>210</ele>
        <time>2022-11-11T13:27:29Z</time>
      </trkpt>
      <trkpt lat="43.51486" lon="6.37901">
        <ele>205</ele>
        <time>2022-11-11T13:27:56Z</time>
      </trkpt>
      <trkpt lat="43.51488" lon="6.37905">
        <ele>205</ele>
        <time>2022-11-11T13:28:00Z</time>
      </trkpt>
      <trkpt lat="43.51493" lon="6.37914">
        <ele>205</ele>
        <time>2022-11-11T13:28:08Z</time>
      </trkpt>
      <trkpt lat="43.51499" lon="6.37929">
        <ele>206</ele>
        <time>2022-11-11T13:28:20Z</time>
      </trkpt>
      <trkpt lat="43.51502" lon="6.37933">
        <ele>208</ele>
        <time>2022-11-11T13:28:25Z</time>
      </trkpt>
      <trkpt lat="43.51506" lon="6.37931">
        <ele>208</ele>
        <time>2022-11-11T13:28:30Z</time>
      </trkpt>
      <trkpt lat="43.51516" lon="6.37924">
        <ele>209</ele>
        <time>2022-11-11T13:28:42Z</time>
      </trkpt>
      <trkpt lat="43.5152" lon="6.37922">
        <ele>213</ele>
        <time>2022-11-11T13:28:45Z</time>
      </trkpt>
      <trkpt lat="43.51524" lon="6.37919">
        <ele>216</ele>
        <time>2022-11-11T13:28:52Z</time>
      </trkpt>
      <trkpt lat="43.51525" lon="6.37914">
        <ele>218</ele>
        <time>2022-11-11T13:28:57Z</time>
      </trkpt>
      <trkpt lat="43.51526" lon="6.37909">
        <ele>219</ele>
        <time>2022-11-11T13:29:01Z</time>
      </trkpt>
      <trkpt lat="43.51532" lon="6.37902">
        <ele>217</ele>
        <time>2022-11-11T13:29:22Z</time>
      </trkpt>
      <trkpt lat="43.5154" lon="6.37889">
        <ele>216</ele>
        <time>2022-11-11T13:29:32Z</time>
      </trkpt>
      <trkpt lat="43.51544" lon="6.37887">
        <ele>216</ele>
        <time>2022-11-11T13:29:34Z</time>
      </trkpt>
      <trkpt lat="43.51548" lon="6.37885">
        <ele>221</ele>
        <time>2022-11-11T13:29:37Z</time>
      </trkpt>
      <trkpt lat="43.51551" lon="6.37876">
        <ele>224</ele>
        <time>2022-11-11T13:29:45Z</time>
      </trkpt>
      <trkpt lat="43.51556" lon="6.37876">
        <ele>221</ele>
        <time>2022-11-11T13:29:52Z</time>
      </trkpt>
      <trkpt lat="43.5156" lon="6.37874">
        <ele>219</ele>
        <time>2022-11-11T13:29:55Z</time>
      </trkpt>
      <trkpt lat="43.51564" lon="6.37874">
        <ele>218</ele>
        <time>2022-11-11T13:29:59Z</time>
      </trkpt>
      <trkpt lat="43.51568" lon="6.37872">
        <ele>218</ele>
        <time>2022-11-11T13:30:03Z</time>
      </trkpt>
      <trkpt lat="43.51572" lon="6.37875">
        <ele>219</ele>
        <time>2022-11-11T13:30:10Z</time>
      </trkpt>
      <trkpt lat="43.51576" lon="6.37874">
        <ele>220</ele>
        <time>2022-11-11T13:30:14Z</time>
      </trkpt>
      <trkpt lat="43.5158" lon="6.37872">
        <ele>222</ele>
        <time>2022-11-11T13:30:19Z</time>
      </trkpt>
      <trkpt lat="43.51579" lon="6.3786">
        <ele>222</ele>
        <time>2022-11-11T13:30:27Z</time>
      </trkpt>
      <trkpt lat="43.51579" lon="6.37855">
        <ele>220</ele>
        <time>2022-11-11T13:30:31Z</time>
      </trkpt>
      <trkpt lat="43.51579" lon="6.37849">
        <ele>221</ele>
        <time>2022-11-11T13:30:35Z</time>
      </trkpt>
      <trkpt lat="43.5158" lon="6.37844">
        <ele>223</ele>
        <time>2022-11-11T13:30:39Z</time>
      </trkpt>
      <trkpt lat="43.51581" lon="6.37838">
        <ele>223</ele>
        <time>2022-11-11T13:30:43Z</time>
      </trkpt>
      <trkpt lat="43.51582" lon="6.37833">
        <ele>222</ele>
        <time>2022-11-11T13:30:47Z</time>
      </trkpt>
      <trkpt lat="43.51586" lon="6.37817">
        <ele>222</ele>
        <time>2022-11-11T13:30:59Z</time>
      </trkpt>
      <trkpt lat="43.51588" lon="6.37812">
        <ele>221</ele>
        <time>2022-11-11T13:31:03Z</time>
      </trkpt>
      <trkpt lat="43.51589" lon="6.37807">
        <ele>221</ele>
        <time>2022-11-11T13:31:07Z</time>
      </trkpt>
      <trkpt lat="43.51591" lon="6.37802">
        <ele>220</ele>
        <time>2022-11-11T13:31:11Z</time>
      </trkpt>
      <trkpt lat="43.51593" lon="6.37797">
        <ele>220</ele>
        <time>2022-11-11T13:31:15Z</time>
      </trkpt>
      <trkpt lat="43.51595" lon="6.37792">
        <ele>219</ele>
        <time>2022-11-11T13:31:19Z</time>
      </trkpt>
      <trkpt lat="43.51603" lon="6.37772">
        <ele>218</ele>
        <time>2022-11-11T13:31:34Z</time>
      </trkpt>
      <trkpt lat="43.51605" lon="6.37768">
        <ele>218</ele>
        <time>2022-11-11T13:31:37Z</time>
      </trkpt>
      <trkpt lat="43.51609" lon="6.37751">
        <ele>219</ele>
        <time>2022-11-11T13:31:49Z</time>
      </trkpt>
      <trkpt lat="43.51608" lon="6.37747">
        <ele>218</ele>
        <time>2022-11-11T13:31:52Z</time>
      </trkpt>
      <trkpt lat="43.51609" lon="6.37742">
        <ele>217</ele>
        <time>2022-11-11T13:31:55Z</time>
      </trkpt>
      <trkpt lat="43.51606" lon="6.37738">
        <ele>217</ele>
        <time>2022-11-11T13:31:59Z</time>
      </trkpt>
      <trkpt lat="43.51607" lon="6.37733">
        <ele>218</ele>
        <time>2022-11-11T13:32:03Z</time>
      </trkpt>
      <trkpt lat="43.51612" lon="6.37717">
        <ele>219</ele>
        <time>2022-11-11T13:32:14Z</time>
      </trkpt>
      <trkpt lat="43.51612" lon="6.37711">
        <ele>219</ele>
        <time>2022-11-11T13:32:20Z</time>
      </trkpt>
      <trkpt lat="43.51616" lon="6.37701">
        <ele>220</ele>
        <time>2022-11-11T13:32:28Z</time>
      </trkpt>
      <trkpt lat="43.51616" lon="6.37696">
        <ele>221</ele>
        <time>2022-11-11T13:32:31Z</time>
      </trkpt>
      <trkpt lat="43.51618" lon="6.37691">
        <ele>220</ele>
        <time>2022-11-11T13:32:35Z</time>
      </trkpt>
      <trkpt lat="43.51621" lon="6.37676">
        <ele>220</ele>
        <time>2022-11-11T13:32:44Z</time>
      </trkpt>
      <trkpt lat="43.51622" lon="6.37666">
        <ele>220</ele>
        <time>2022-11-11T13:32:51Z</time>
      </trkpt>
      <trkpt lat="43.51623" lon="6.3766">
        <ele>221</ele>
        <time>2022-11-11T13:32:55Z</time>
      </trkpt>
      <trkpt lat="43.51626" lon="6.3765">
        <ele>228</ele>
        <time>2022-11-11T13:33:04Z</time>
      </trkpt>
      <trkpt lat="43.51631" lon="6.37637">
        <ele>223</ele>
        <time>2022-11-11T13:33:17Z</time>
      </trkpt>
      <trkpt lat="43.51631" lon="6.37623">
        <ele>224</ele>
        <time>2022-11-11T13:33:22Z</time>
      </trkpt>
      <trkpt lat="43.51638" lon="6.37613">
        <ele>221</ele>
        <time>2022-11-11T13:33:33Z</time>
      </trkpt>
      <trkpt lat="43.51644" lon="6.37603">
        <ele>224</ele>
        <time>2022-11-11T13:33:43Z</time>
      </trkpt>
      <trkpt lat="43.51655" lon="6.37569">
        <ele>221</ele>
        <time>2022-11-11T13:34:11Z</time>
      </trkpt>
      <trkpt lat="43.51665" lon="6.37562">
        <ele>219</ele>
        <time>2022-11-11T13:34:25Z</time>
      </trkpt>
      <trkpt lat="43.51668" lon="6.37558">
        <ele>221</ele>
        <time>2022-11-11T13:34:29Z</time>
      </trkpt>
      <trkpt lat="43.51672" lon="6.37552">
        <ele>222</ele>
        <time>2022-11-11T13:34:33Z</time>
      </trkpt>
      <trkpt lat="43.51675" lon="6.37549">
        <ele>223</ele>
        <time>2022-11-11T13:34:36Z</time>
      </trkpt>
      <trkpt lat="43.51679" lon="6.37545">
        <ele>224</ele>
        <time>2022-11-11T13:34:42Z</time>
      </trkpt>
      <trkpt lat="43.51683" lon="6.37541">
        <ele>223</ele>
        <time>2022-11-11T13:34:48Z</time>
      </trkpt>
      <trkpt lat="43.51686" lon="6.37537">
        <ele>221</ele>
        <time>2022-11-11T13:34:57Z</time>
      </trkpt>
      <trkpt lat="43.51688" lon="6.37532">
        <ele>219</ele>
        <time>2022-11-11T13:35:04Z</time>
      </trkpt>
      <trkpt lat="43.51688" lon="6.37521">
        <ele>217</ele>
        <time>2022-11-11T13:35:13Z</time>
      </trkpt>
      <trkpt lat="43.5169" lon="6.37515">
        <ele>218</ele>
        <time>2022-11-11T13:35:18Z</time>
      </trkpt>
      <trkpt lat="43.51691" lon="6.3751">
        <ele>218</ele>
        <time>2022-11-11T13:35:22Z</time>
      </trkpt>
      <trkpt lat="43.51693" lon="6.375">
        <ele>217</ele>
        <time>2022-11-11T13:35:30Z</time>
      </trkpt>
      <trkpt lat="43.51696" lon="6.37496">
        <ele>217</ele>
        <time>2022-11-11T13:35:34Z</time>
      </trkpt>
      <trkpt lat="43.517" lon="6.37486">
        <ele>217</ele>
        <time>2022-11-11T13:35:41Z</time>
      </trkpt>
      <trkpt lat="43.51708" lon="6.37459">
        <ele>220</ele>
        <time>2022-11-11T13:36:02Z</time>
      </trkpt>
      <trkpt lat="43.51708" lon="6.37453">
        <ele>220</ele>
        <time>2022-11-11T13:36:06Z</time>
      </trkpt>
      <trkpt lat="43.51709" lon="6.37429">
        <ele>220</ele>
        <time>2022-11-11T13:36:20Z</time>
      </trkpt>
      <trkpt lat="43.5171" lon="6.37424">
        <ele>220</ele>
        <time>2022-11-11T13:36:23Z</time>
      </trkpt>
      <trkpt lat="43.5171" lon="6.37418">
        <ele>219</ele>
        <time>2022-11-11T13:36:27Z</time>
      </trkpt>
      <trkpt lat="43.51709" lon="6.37413">
        <ele>220</ele>
        <time>2022-11-11T13:36:31Z</time>
      </trkpt>
      <trkpt lat="43.51711" lon="6.37407">
        <ele>221</ele>
        <time>2022-11-11T13:36:35Z</time>
      </trkpt>
      <trkpt lat="43.51715" lon="6.37402">
        <ele>221</ele>
        <time>2022-11-11T13:36:40Z</time>
      </trkpt>
      <trkpt lat="43.51723" lon="6.37402">
        <ele>219</ele>
        <time>2022-11-11T13:36:48Z</time>
      </trkpt>
      <trkpt lat="43.51727" lon="6.37402">
        <ele>219</ele>
        <time>2022-11-11T13:36:51Z</time>
      </trkpt>
      <trkpt lat="43.5173" lon="6.374">
        <ele>219</ele>
        <time>2022-11-11T13:36:54Z</time>
      </trkpt>
      <trkpt lat="43.51732" lon="6.37395">
        <ele>219</ele>
        <time>2022-11-11T13:36:58Z</time>
      </trkpt>
      <trkpt lat="43.51732" lon="6.37389">
        <ele>219</ele>
        <time>2022-11-11T13:37:02Z</time>
      </trkpt>
      <trkpt lat="43.51734" lon="6.37384">
        <ele>218</ele>
        <time>2022-11-11T13:37:06Z</time>
      </trkpt>
      <trkpt lat="43.51735" lon="6.37379">
        <ele>219</ele>
        <time>2022-11-11T13:37:10Z</time>
      </trkpt>
      <trkpt lat="43.5174" lon="6.37369">
        <ele>221</ele>
        <time>2022-11-11T13:37:18Z</time>
      </trkpt>
      <trkpt lat="43.51743" lon="6.37366">
        <ele>221</ele>
        <time>2022-11-11T13:37:22Z</time>
      </trkpt>
      <trkpt lat="43.51751" lon="6.37354">
        <ele>222</ele>
        <time>2022-11-11T13:37:33Z</time>
      </trkpt>
      <trkpt lat="43.51752" lon="6.37348">
        <ele>222</ele>
        <time>2022-11-11T13:37:37Z</time>
      </trkpt>
      <trkpt lat="43.51754" lon="6.37342">
        <ele>221</ele>
        <time>2022-11-11T13:37:43Z</time>
      </trkpt>
      <trkpt lat="43.51757" lon="6.3734">
        <ele>223</ele>
        <time>2022-11-11T13:42:21Z</time>
      </trkpt>
      <trkpt lat="43.51756" lon="6.37333">
        <ele>227</ele>
        <time>2022-11-11T13:43:25Z</time>
      </trkpt>
      <trkpt lat="43.51757" lon="6.37326">
        <ele>234</ele>
        <time>2022-11-11T13:54:50Z</time>
      </trkpt>
      <trkpt lat="43.51763" lon="6.37328">
        <ele>232</ele>
        <time>2022-11-11T13:55:43Z</time>
      </trkpt>
      <trkpt lat="43.51767" lon="6.37332">
        <ele>230</ele>
        <time>2022-11-11T13:55:46Z</time>
      </trkpt>
      <trkpt lat="43.51773" lon="6.3734">
        <ele>229</ele>
        <time>2022-11-11T13:55:59Z</time>
      </trkpt>
      <trkpt lat="43.51782" lon="6.37342">
        <ele>227</ele>
        <time>2022-11-11T13:56:38Z</time>
      </trkpt>
      <trkpt lat="43.51798" lon="6.37355">
        <ele>225</ele>
        <time>2022-11-11T13:56:58Z</time>
      </trkpt>
      <trkpt lat="43.51806" lon="6.37364">
        <ele>230</ele>
        <time>2022-11-11T13:57:10Z</time>
      </trkpt>
      <trkpt lat="43.51815" lon="6.37367">
        <ele>232</ele>
        <time>2022-11-11T13:57:19Z</time>
      </trkpt>
      <trkpt lat="43.51824" lon="6.37369">
        <ele>233</ele>
        <time>2022-11-11T13:57:26Z</time>
      </trkpt>
      <trkpt lat="43.51838" lon="6.37385">
        <ele>232</ele>
        <time>2022-11-11T13:57:55Z</time>
      </trkpt>
      <trkpt lat="43.51847" lon="6.37391">
        <ele>235</ele>
        <time>2022-11-11T13:58:04Z</time>
      </trkpt>
      <trkpt lat="43.51855" lon="6.37398">
        <ele>238</ele>
        <time>2022-11-11T13:58:15Z</time>
      </trkpt>
      <trkpt lat="43.51864" lon="6.37404">
        <ele>240</ele>
        <time>2022-11-11T13:58:26Z</time>
      </trkpt>
      <trkpt lat="43.51881" lon="6.37413">
        <ele>242</ele>
        <time>2022-11-11T13:58:47Z</time>
      </trkpt>
      <trkpt lat="43.51899" lon="6.37423">
        <ele>242</ele>
        <time>2022-11-11T13:59:13Z</time>
      </trkpt>
      <trkpt lat="43.51908" lon="6.37425">
        <ele>244</ele>
        <time>2022-11-11T13:59:28Z</time>
      </trkpt>
      <trkpt lat="43.51926" lon="6.37432">
        <ele>243</ele>
        <time>2022-11-11T13:59:54Z</time>
      </trkpt>
      <trkpt lat="43.51935" lon="6.3744">
        <ele>240</ele>
        <time>2022-11-11T14:00:10Z</time>
      </trkpt>
      <trkpt lat="43.51953" lon="6.37451">
        <ele>248</ele>
        <time>2022-11-11T14:00:33Z</time>
      </trkpt>
      <trkpt lat="43.51961" lon="6.37458">
        <ele>246</ele>
        <time>2022-11-11T14:00:46Z</time>
      </trkpt>
      <trkpt lat="43.51965" lon="6.37458">
        <ele>244</ele>
        <time>2022-11-11T14:01:17Z</time>
      </trkpt>
      <trkpt lat="43.51964" lon="6.37453">
        <ele>246</ele>
        <time>2022-11-11T14:01:26Z</time>
      </trkpt>
      <trkpt lat="43.5197" lon="6.37449">
        <ele>247</ele>
        <time>2022-11-11T14:01:42Z</time>
      </trkpt>
      <trkpt lat="43.51979" lon="6.37455">
        <ele>251</ele>
        <time>2022-11-11T14:03:51Z</time>
      </trkpt>
      <trkpt lat="43.51985" lon="6.37466">
        <ele>253</ele>
        <time>2022-11-11T14:04:09Z</time>
      </trkpt>
      <trkpt lat="43.5199" lon="6.37477">
        <ele>256</ele>
        <time>2022-11-11T14:04:23Z</time>
      </trkpt>
      <trkpt lat="43.51993" lon="6.3749">
        <ele>259</ele>
        <time>2022-11-11T14:04:40Z</time>
      </trkpt>
      <trkpt lat="43.51995" lon="6.37503">
        <ele>257</ele>
        <time>2022-11-11T14:05:01Z</time>
      </trkpt>
      <trkpt lat="43.51995" lon="6.37516">
        <ele>261</ele>
        <time>2022-11-11T14:05:14Z</time>
      </trkpt>
      <trkpt lat="43.51997" lon="6.37529">
        <ele>265</ele>
        <time>2022-11-11T14:05:31Z</time>
      </trkpt>
      <trkpt lat="43.52007" lon="6.37551">
        <ele>263</ele>
        <time>2022-11-11T14:06:10Z</time>
      </trkpt>
      <trkpt lat="43.52007" lon="6.37564">
        <ele>266</ele>
        <time>2022-11-11T14:06:28Z</time>
      </trkpt>
      <trkpt lat="43.52009" lon="6.37577">
        <ele>270</ele>
        <time>2022-11-11T14:06:41Z</time>
      </trkpt>
      <trkpt lat="43.52017" lon="6.37582">
        <ele>271</ele>
        <time>2022-11-11T14:06:59Z</time>
      </trkpt>
      <trkpt lat="43.52024" lon="6.37606">
        <ele>272</ele>
        <time>2022-11-11T14:07:23Z</time>
      </trkpt>
      <trkpt lat="43.52029" lon="6.37616">
        <ele>278</ele>
        <time>2022-11-11T14:07:35Z</time>
      </trkpt>
      <trkpt lat="43.52035" lon="6.37626">
        <ele>279</ele>
        <time>2022-11-11T14:07:49Z</time>
      </trkpt>
      <trkpt lat="43.52041" lon="6.37636">
        <ele>279</ele>
        <time>2022-11-11T14:08:02Z</time>
      </trkpt>
      <trkpt lat="43.52046" lon="6.3765">
        <ele>281</ele>
        <time>2022-11-11T14:08:13Z</time>
      </trkpt>
      <trkpt lat="43.52048" lon="6.37664">
        <ele>282</ele>
        <time>2022-11-11T14:08:24Z</time>
      </trkpt>
      <trkpt lat="43.52051" lon="6.37676">
        <ele>282</ele>
        <time>2022-11-11T14:08:32Z</time>
      </trkpt>
      <trkpt lat="43.52064" lon="6.37711">
        <ele>286</ele>
        <time>2022-11-11T14:09:04Z</time>
      </trkpt>
      <trkpt lat="43.52069" lon="6.37722">
        <ele>287</ele>
        <time>2022-11-11T14:12:49Z</time>
      </trkpt>
      <trkpt lat="43.52077" lon="6.37729">
        <ele>290</ele>
        <time>2022-11-11T14:13:00Z</time>
      </trkpt>
      <trkpt lat="43.52082" lon="6.37739">
        <ele>284</ele>
        <time>2022-11-11T14:13:48Z</time>
      </trkpt>
      <trkpt lat="43.52093" lon="6.3776">
        <ele>282</ele>
        <time>2022-11-11T14:14:08Z</time>
      </trkpt>
      <trkpt lat="43.52098" lon="6.37771">
        <ele>283</ele>
        <time>2022-11-11T14:14:17Z</time>
      </trkpt>
      <trkpt lat="43.52113" lon="6.37805">
        <ele>282</ele>
        <time>2022-11-11T14:14:48Z</time>
      </trkpt>
      <trkpt lat="43.52116" lon="6.37817">
        <ele>281</ele>
        <time>2022-11-11T14:14:58Z</time>
      </trkpt>
      <trkpt lat="43.5212" lon="6.37829">
        <ele>279</ele>
        <time>2022-11-11T14:15:09Z</time>
      </trkpt>
      <trkpt lat="43.52122" lon="6.37842">
        <ele>274</ele>
        <time>2022-11-11T14:15:18Z</time>
      </trkpt>
      <trkpt lat="43.52124" lon="6.37855">
        <ele>273</ele>
        <time>2022-11-11T14:15:27Z</time>
      </trkpt>
      <trkpt lat="43.52127" lon="6.37867">
        <ele>271</ele>
        <time>2022-11-11T14:15:37Z</time>
      </trkpt>
      <trkpt lat="43.52132" lon="6.37879">
        <ele>269</ele>
        <time>2022-11-11T14:15:47Z</time>
      </trkpt>
      <trkpt lat="43.52134" lon="6.37892">
        <ele>268</ele>
        <time>2022-11-11T14:15:55Z</time>
      </trkpt>
      <trkpt lat="43.52137" lon="6.37905">
        <ele>266</ele>
        <time>2022-11-11T14:16:04Z</time>
      </trkpt>
      <trkpt lat="43.52139" lon="6.37917">
        <ele>263</ele>
        <time>2022-11-11T14:16:13Z</time>
      </trkpt>
      <trkpt lat="43.5214" lon="6.37942">
        <ele>262</ele>
        <time>2022-11-11T14:16:29Z</time>
      </trkpt>
      <trkpt lat="43.52141" lon="6.37955">
        <ele>258</ele>
        <time>2022-11-11T14:16:37Z</time>
      </trkpt>
      <trkpt lat="43.52142" lon="6.37968">
        <ele>257</ele>
        <time>2022-11-11T14:16:46Z</time>
      </trkpt>
      <trkpt lat="43.5214" lon="6.3798">
        <ele>257</ele>
        <time>2022-11-11T14:16:55Z</time>
      </trkpt>
      <trkpt lat="43.52136" lon="6.37993">
        <ele>251</ele>
        <time>2022-11-11T14:17:04Z</time>
      </trkpt>
      <trkpt lat="43.52132" lon="6.38004">
        <ele>249</ele>
        <time>2022-11-11T14:17:14Z</time>
      </trkpt>
      <trkpt lat="43.52127" lon="6.38015">
        <ele>246</ele>
        <time>2022-11-11T14:17:24Z</time>
      </trkpt>
      <trkpt lat="43.52117" lon="6.38038">
        <ele>245</ele>
        <time>2022-11-11T14:17:45Z</time>
      </trkpt>
      <trkpt lat="43.52111" lon="6.38049">
        <ele>242</ele>
        <time>2022-11-11T14:17:55Z</time>
      </trkpt>
      <trkpt lat="43.52104" lon="6.38073">
        <ele>240</ele>
        <time>2022-11-11T14:18:14Z</time>
      </trkpt>
      <trkpt lat="43.52096" lon="6.38098">
        <ele>235</ele>
        <time>2022-11-11T14:18:34Z</time>
      </trkpt>
      <trkpt lat="43.52093" lon="6.38111">
        <ele>233</ele>
        <time>2022-11-11T14:18:43Z</time>
      </trkpt>
      <trkpt lat="43.5209" lon="6.38123">
        <ele>232</ele>
        <time>2022-11-11T14:18:54Z</time>
      </trkpt>
      <trkpt lat="43.52081" lon="6.38122">
        <ele>238</ele>
        <time>2022-11-11T14:23:57Z</time>
      </trkpt>
      <trkpt lat="43.52073" lon="6.38128">
        <ele>237</ele>
        <time>2022-11-11T14:24:10Z</time>
      </trkpt>
      <trkpt lat="43.52056" lon="6.38136">
        <ele>235</ele>
        <time>2022-11-11T14:24:29Z</time>
      </trkpt>
      <trkpt lat="43.52048" lon="6.38143">
        <ele>233</ele>
        <time>2022-11-11T14:24:38Z</time>
      </trkpt>
      <trkpt lat="43.5204" lon="6.3815">
        <ele>235</ele>
        <time>2022-11-11T14:24:48Z</time>
      </trkpt>
      <trkpt lat="43.52021" lon="6.38153">
        <ele>234</ele>
        <time>2022-11-11T14:25:09Z</time>
      </trkpt>
      <trkpt lat="43.52002" lon="6.38156">
        <ele>234</ele>
        <time>2022-11-11T14:25:32Z</time>
      </trkpt>
      <trkpt lat="43.51993" lon="6.3816">
        <ele>235</ele>
        <time>2022-11-11T14:25:41Z</time>
      </trkpt>
      <trkpt lat="43.51985" lon="6.38164">
        <ele>232</ele>
        <time>2022-11-11T14:25:50Z</time>
      </trkpt>
      <trkpt lat="43.51967" lon="6.38173">
        <ele>229</ele>
        <time>2022-11-11T14:26:11Z</time>
      </trkpt>
      <trkpt lat="43.51959" lon="6.38178">
        <ele>227</ele>
        <time>2022-11-11T14:26:22Z</time>
      </trkpt>
      <trkpt lat="43.51949" lon="6.38186">
        <ele>228</ele>
        <time>2022-11-11T14:26:34Z</time>
      </trkpt>
      <trkpt lat="43.51941" lon="6.38193">
        <ele>229</ele>
        <time>2022-11-11T14:26:40Z</time>
      </trkpt>
      <trkpt lat="43.51933" lon="6.38201">
        <ele>229</ele>
        <time>2022-11-11T14:26:50Z</time>
      </trkpt>
      <trkpt lat="43.51926" lon="6.38211">
        <ele>230</ele>
        <time>2022-11-11T14:27:22Z</time>
      </trkpt>
      <trkpt lat="43.5192" lon="6.38221">
        <ele>232</ele>
        <time>2022-11-11T14:27:30Z</time>
      </trkpt>
      <trkpt lat="43.51913" lon="6.38229">
        <ele>235</ele>
        <time>2022-11-11T14:27:41Z</time>
      </trkpt>
      <trkpt lat="43.51902" lon="6.3825">
        <ele>235</ele>
        <time>2022-11-11T14:28:03Z</time>
      </trkpt>
      <trkpt lat="43.51894" lon="6.38258">
        <ele>232</ele>
        <time>2022-11-11T14:28:16Z</time>
      </trkpt>
      <trkpt lat="43.51877" lon="6.38289">
        <ele>228</ele>
        <time>2022-11-11T14:28:47Z</time>
      </trkpt>
      <trkpt lat="43.5187" lon="6.38297">
        <ele>229</ele>
        <time>2022-11-11T14:28:55Z</time>
      </trkpt>
      <trkpt lat="43.51859" lon="6.38319">
        <ele>220</ele>
        <time>2022-11-11T14:29:15Z</time>
      </trkpt>
      <trkpt lat="43.51842" lon="6.38333">
        <ele>218</ele>
        <time>2022-11-11T14:29:34Z</time>
      </trkpt>
      <trkpt lat="43.51827" lon="6.38347">
        <ele>218</ele>
        <time>2022-11-11T14:29:52Z</time>
      </trkpt>
      <trkpt lat="43.51819" lon="6.38356">
        <ele>216</ele>
        <time>2022-11-11T14:30:02Z</time>
      </trkpt>
      <trkpt lat="43.51811" lon="6.38365">
        <ele>214</ele>
        <time>2022-11-11T14:30:11Z</time>
      </trkpt>
      <trkpt lat="43.51803" lon="6.38371">
        <ele>211</ele>
        <time>2022-11-11T14:30:20Z</time>
      </trkpt>
      <trkpt lat="43.51795" lon="6.38378">
        <ele>213</ele>
        <time>2022-11-11T14:30:29Z</time>
      </trkpt>
      <trkpt lat="43.51786" lon="6.38387">
        <ele>215</ele>
        <time>2022-11-11T14:30:37Z</time>
      </trkpt>
      <trkpt lat="43.51764" lon="6.38412">
        <ele>212</ele>
        <time>2022-11-11T14:31:02Z</time>
      </trkpt>
      <trkpt lat="43.51755" lon="6.38417">
        <ele>214</ele>
        <time>2022-11-11T14:31:11Z</time>
      </trkpt>
      <trkpt lat="43.51736" lon="6.38422">
        <ele>215</ele>
        <time>2022-11-11T14:31:30Z</time>
      </trkpt>
      <trkpt lat="43.51727" lon="6.38423">
        <ele>218</ele>
        <time>2022-11-11T14:31:39Z</time>
      </trkpt>
      <trkpt lat="43.51717" lon="6.38423">
        <ele>222</ele>
        <time>2022-11-11T14:31:48Z</time>
      </trkpt>
      <trkpt lat="43.51708" lon="6.38422">
        <ele>225</ele>
        <time>2022-11-11T14:31:57Z</time>
      </trkpt>
      <trkpt lat="43.51689" lon="6.38423">
        <ele>228</ele>
        <time>2022-11-11T14:32:15Z</time>
      </trkpt>
      <trkpt lat="43.51677" lon="6.3843">
        <ele>224</ele>
        <time>2022-11-11T14:33:50Z</time>
      </trkpt>
      <trkpt lat="43.51667" lon="6.38426">
        <ele>225</ele>
        <time>2022-11-11T14:33:58Z</time>
      </trkpt>
      <trkpt lat="43.51657" lon="6.38422">
        <ele>234</ele>
        <time>2022-11-11T14:34:05Z</time>
      </trkpt>
      <trkpt lat="43.51648" lon="6.38416">
        <ele>236</ele>
        <time>2022-11-11T14:34:14Z</time>
      </trkpt>
      <trkpt lat="43.5164" lon="6.38406">
        <ele>238</ele>
        <time>2022-11-11T14:34:26Z</time>
      </trkpt>
      <trkpt lat="43.5163" lon="6.38402">
        <ele>237</ele>
        <time>2022-11-11T14:34:44Z</time>
      </trkpt>
      <trkpt lat="43.51619" lon="6.38398">
        <ele>235</ele>
        <time>2022-11-11T14:34:51Z</time>
      </trkpt>
      <trkpt lat="43.5161" lon="6.384">
        <ele>236</ele>
        <time>2022-11-11T14:35:00Z</time>
      </trkpt>
      <trkpt lat="43.516" lon="6.38398">
        <ele>232</ele>
        <time>2022-11-11T14:35:10Z</time>
      </trkpt>
      <trkpt lat="43.51592" lon="6.3839">
        <ele>232</ele>
        <time>2022-11-11T14:35:21Z</time>
      </trkpt>
      <trkpt lat="43.51584" lon="6.38384">
        <ele>235</ele>
        <time>2022-11-11T14:35:31Z</time>
      </trkpt>
      <trkpt lat="43.51578" lon="6.38374">
        <ele>234</ele>
        <time>2022-11-11T14:35:40Z</time>
      </trkpt>
      <trkpt lat="43.51573" lon="6.38362">
        <ele>231</ele>
        <time>2022-11-11T14:36:11Z</time>
      </trkpt>
      <trkpt lat="43.51568" lon="6.3835">
        <ele>229</ele>
        <time>2022-11-11T14:36:22Z</time>
      </trkpt>
      <trkpt lat="43.51569" lon="6.38336">
        <ele>228</ele>
        <time>2022-11-11T14:36:34Z</time>
      </trkpt>
      <trkpt lat="43.51568" lon="6.3831">
        <ele>229</ele>
        <time>2022-11-11T14:36:55Z</time>
      </trkpt>
      <trkpt lat="43.51568" lon="6.38297">
        <ele>229</ele>
        <time>2022-11-11T14:37:06Z</time>
      </trkpt>
      <trkpt lat="43.51568" lon="6.38284">
        <ele>229</ele>
        <time>2022-11-11T14:37:16Z</time>
      </trkpt>
      <trkpt lat="43.5157" lon="6.38246">
        <ele>228</ele>
        <time>2022-11-11T14:37:48Z</time>
      </trkpt>
      <trkpt lat="43.5157" lon="6.38233">
        <ele>231</ele>
        <time>2022-11-11T14:38:01Z</time>
      </trkpt>
      <trkpt lat="43.51569" lon="6.38194">
        <ele>230</ele>
        <time>2022-11-11T14:38:34Z</time>
      </trkpt>
      <trkpt lat="43.51569" lon="6.38167">
        <ele>232</ele>
        <time>2022-11-11T14:38:52Z</time>
      </trkpt>
      <trkpt lat="43.51567" lon="6.38155">
        <ele>230</ele>
        <time>2022-11-11T14:38:59Z</time>
      </trkpt>
      <trkpt lat="43.51564" lon="6.38143">
        <ele>231</ele>
        <time>2022-11-11T14:39:06Z</time>
      </trkpt>
      <trkpt lat="43.51563" lon="6.38129">
        <ele>231</ele>
        <time>2022-11-11T14:39:13Z</time>
      </trkpt>
      <trkpt lat="43.51563" lon="6.38114">
        <ele>233</ele>
        <time>2022-11-11T14:39:27Z</time>
      </trkpt>
      <trkpt lat="43.51568" lon="6.38103">
        <ele>237</ele>
        <time>2022-11-11T14:39:37Z</time>
      </trkpt>
      <trkpt lat="43.51565" lon="6.38063">
        <ele>236</ele>
        <time>2022-11-11T14:40:11Z</time>
      </trkpt>
      <trkpt lat="43.51566" lon="6.3805">
        <ele>232</ele>
        <time>2022-11-11T14:40:24Z</time>
      </trkpt>
      <trkpt lat="43.51568" lon="6.38037">
        <ele>232</ele>
        <time>2022-11-11T14:40:35Z</time>
      </trkpt>
      <trkpt lat="43.51568" lon="6.38025">
        <ele>229</ele>
        <time>2022-11-11T14:40:49Z</time>
      </trkpt>
      <trkpt lat="43.51569" lon="6.38012">
        <ele>224</ele>
        <time>2022-11-11T14:41:00Z</time>
      </trkpt>
      <trkpt lat="43.51569" lon="6.38">
        <ele>223</ele>
        <time>2022-11-11T14:41:09Z</time>
      </trkpt>
      <trkpt lat="43.51567" lon="6.37987">
        <ele>223</ele>
        <time>2022-11-11T14:41:18Z</time>
      </trkpt>
      <trkpt lat="43.51559" lon="6.3798">
        <ele>224</ele>
        <time>2022-11-11T14:41:27Z</time>
      </trkpt>
      <trkpt lat="43.51552" lon="6.37971">
        <ele>223</ele>
        <time>2022-11-11T14:41:36Z</time>
      </trkpt>
      <trkpt lat="43.51556" lon="6.37932">
        <ele>224</ele>
        <time>2022-11-11T14:42:01Z</time>
      </trkpt>
      <trkpt lat="43.51572" lon="6.37885">
        <ele>225</ele>
        <time>2022-11-11T14:42:39Z</time>
      </trkpt>
      <trkpt lat="43.51573" lon="6.3788">
        <ele>224</ele>
        <time>2022-11-11T14:44:25Z</time>
      </trkpt>
      <trkpt lat="43.51572" lon="6.37875">
        <ele>223</ele>
        <time>2022-11-11T14:44:30Z</time>
      </trkpt>
      <trkpt lat="43.51569" lon="6.37872">
        <ele>222</ele>
        <time>2022-11-11T14:44:34Z</time>
      </trkpt>
      <trkpt lat="43.51562" lon="6.37869">
        <ele>222</ele>
        <time>2022-11-11T14:44:43Z</time>
      </trkpt>
      <trkpt lat="43.51558" lon="6.3787">
        <ele>222</ele>
        <time>2022-11-11T14:44:47Z</time>
      </trkpt>
      <trkpt lat="43.51555" lon="6.37874">
        <ele>221</ele>
        <time>2022-11-11T14:44:51Z</time>
      </trkpt>
      <trkpt lat="43.51552" lon="6.37877">
        <ele>219</ele>
        <time>2022-11-11T14:44:55Z</time>
      </trkpt>
      <trkpt lat="43.51545" lon="6.37881">
        <ele>219</ele>
        <time>2022-11-11T14:45:00Z</time>
      </trkpt>
      <trkpt lat="43.51537" lon="6.37892">
        <ele>220</ele>
        <time>2022-11-11T14:45:14Z</time>
      </trkpt>
      <trkpt lat="43.51534" lon="6.37894">
        <ele>219</ele>
        <time>2022-11-11T14:45:18Z</time>
      </trkpt>
      <trkpt lat="43.51531" lon="6.37895">
        <ele>218</ele>
        <time>2022-11-11T14:45:23Z</time>
      </trkpt>
      <trkpt lat="43.51528" lon="6.37899">
        <ele>219</ele>
        <time>2022-11-11T14:45:28Z</time>
      </trkpt>
      <trkpt lat="43.51524" lon="6.37907">
        <ele>221</ele>
        <time>2022-11-11T14:45:38Z</time>
      </trkpt>
      <trkpt lat="43.51517" lon="6.37921">
        <ele>219</ele>
        <time>2022-11-11T14:45:51Z</time>
      </trkpt>
      <trkpt lat="43.5151" lon="6.37929">
        <ele>215</ele>
        <time>2022-11-11T14:46:01Z</time>
      </trkpt>
      <trkpt lat="43.515" lon="6.37931">
        <ele>215</ele>
        <time>2022-11-11T14:46:13Z</time>
      </trkpt>
      <trkpt lat="43.51496" lon="6.37919">
        <ele>211</ele>
        <time>2022-11-11T14:46:24Z</time>
      </trkpt>
      <trkpt lat="43.5149" lon="6.37909">
        <ele>211</ele>
        <time>2022-11-11T14:46:33Z</time>
      </trkpt>
      <trkpt lat="43.51478" lon="6.37887">
        <ele>213</ele>
        <time>2022-11-11T14:46:50Z</time>
      </trkpt>
      <trkpt lat="43.51472" lon="6.37878">
        <ele>211</ele>
        <time>2022-11-11T14:46:57Z</time>
      </trkpt>
      <trkpt lat="43.51466" lon="6.37869">
        <ele>212</ele>
        <time>2022-11-11T14:47:04Z</time>
      </trkpt>
      <trkpt lat="43.51458" lon="6.37861">
        <ele>214</ele>
        <time>2022-11-11T14:47:11Z</time>
      </trkpt>
      <trkpt lat="43.5145" lon="6.37854">
        <ele>214</ele>
        <time>2022-11-11T14:47:19Z</time>
      </trkpt>
      <trkpt lat="43.51442" lon="6.37848">
        <ele>215</ele>
        <time>2022-11-11T14:47:26Z</time>
      </trkpt>
      <trkpt lat="43.51433" lon="6.37842">
        <ele>215</ele>
        <time>2022-11-11T14:47:34Z</time>
      </trkpt>
      <trkpt lat="43.51424" lon="6.37837">
        <ele>214</ele>
        <time>2022-11-11T14:47:42Z</time>
      </trkpt>
      <trkpt lat="43.51388" lon="6.37823">
        <ele>214</ele>
        <time>2022-11-11T14:48:11Z</time>
      </trkpt>
      <trkpt lat="43.51379" lon="6.37823">
        <ele>216</ele>
        <time>2022-11-11T14:48:18Z</time>
      </trkpt>
      <trkpt lat="43.5136" lon="6.37823">
        <ele>219</ele>
        <time>2022-11-11T14:48:34Z</time>
      </trkpt>
      <trkpt lat="43.51324" lon="6.3784">
        <ele>218</ele>
        <time>2022-11-11T14:49:08Z</time>
      </trkpt>
      <trkpt lat="43.51305" lon="6.37855">
        <ele>217</ele>
        <time>2022-11-11T14:49:28Z</time>
      </trkpt>
      <trkpt lat="43.51301" lon="6.37857">
        <ele>216</ele>
        <time>2022-11-11T14:49:32Z</time>
      </trkpt>
      <trkpt lat="43.51294" lon="6.37861">
        <ele>216</ele>
        <time>2022-11-11T14:49:38Z</time>
      </trkpt>
      <trkpt lat="43.51286" lon="6.37865">
        <ele>215</ele>
        <time>2022-11-11T14:49:46Z</time>
      </trkpt>
      <trkpt lat="43.51275" lon="6.37872">
        <ele>215</ele>
        <time>2022-11-11T14:49:55Z</time>
      </trkpt>
      <trkpt lat="43.51267" lon="6.37875">
        <ele>214</ele>
        <time>2022-11-11T14:50:02Z</time>
      </trkpt>
      <trkpt lat="43.51264" lon="6.37877">
        <ele>214</ele>
        <time>2022-11-11T14:50:05Z</time>
      </trkpt>
      <trkpt lat="43.5125" lon="6.37885">
        <ele>214</ele>
        <time>2022-11-11T14:50:19Z</time>
      </trkpt>
      <trkpt lat="43.51245" lon="6.37891">
        <ele>214</ele>
        <time>2022-11-11T14:50:24Z</time>
      </trkpt>
      <trkpt lat="43.51223" lon="6.37905">
        <ele>221</ele>
        <time>2022-11-11T14:50:43Z</time>
      </trkpt>
      <trkpt lat="43.51209" lon="6.37922">
        <ele>221</ele>
        <time>2022-11-11T14:50:58Z</time>
      </trkpt>
      <trkpt lat="43.51202" lon="6.37931">
        <ele>221</ele>
        <time>2022-11-11T14:51:09Z</time>
      </trkpt>
      <trkpt lat="43.51194" lon="6.37937">
        <ele>216</ele>
        <time>2022-11-11T14:53:01Z</time>
      </trkpt>
      <trkpt lat="43.51188" lon="6.37948">
        <ele>215</ele>
        <time>2022-11-11T14:53:12Z</time>
      </trkpt>
      <trkpt lat="43.51172" lon="6.37993">
        <ele>215</ele>
        <time>2022-11-11T14:53:49Z</time>
      </trkpt>
      <trkpt lat="43.51168" lon="6.38004">
        <ele>217</ele>
        <time>2022-11-11T14:53:58Z</time>
      </trkpt>
      <trkpt lat="43.51164" lon="6.38016">
        <ele>218</ele>
        <time>2022-11-11T14:54:08Z</time>
      </trkpt>
      <trkpt lat="43.5115" lon="6.3805">
        <ele>218</ele>
        <time>2022-11-11T14:54:37Z</time>
      </trkpt>
      <trkpt lat="43.51144" lon="6.38059">
        <ele>217</ele>
        <time>2022-11-11T14:54:47Z</time>
      </trkpt>
      <trkpt lat="43.51136" lon="6.38067">
        <ele>217</ele>
        <time>2022-11-11T14:54:56Z</time>
      </trkpt>
      <trkpt lat="43.5113" lon="6.38077">
        <ele>217</ele>
        <time>2022-11-11T14:55:06Z</time>
      </trkpt>
      <trkpt lat="43.51124" lon="6.38087">
        <ele>218</ele>
        <time>2022-11-11T14:55:19Z</time>
      </trkpt>
      <trkpt lat="43.51092" lon="6.38115">
        <ele>223</ele>
        <time>2022-11-11T14:55:56Z</time>
      </trkpt>
      <trkpt lat="43.51084" lon="6.3812">
        <ele>225</ele>
        <time>2022-11-11T14:56:05Z</time>
      </trkpt>
      <trkpt lat="43.51075" lon="6.38125">
        <ele>225</ele>
        <time>2022-11-11T14:56:13Z</time>
      </trkpt>
      <trkpt lat="43.51066" lon="6.38129">
        <ele>227</ele>
        <time>2022-11-11T14:56:22Z</time>
      </trkpt>
      <trkpt lat="43.51057" lon="6.3813">
        <ele>230</ele>
        <time>2022-11-11T14:56:31Z</time>
      </trkpt>
      <trkpt lat="43.51048" lon="6.38131">
        <ele>230</ele>
        <time>2022-11-11T14:56:39Z</time>
      </trkpt>
      <trkpt lat="43.51039" lon="6.38132">
        <ele>224</ele>
        <time>2022-11-11T14:56:46Z</time>
      </trkpt>
      <trkpt lat="43.51029" lon="6.38133">
        <ele>221</ele>
        <time>2022-11-11T14:56:54Z</time>
      </trkpt>
      <trkpt lat="43.5102" lon="6.38132">
        <ele>221</ele>
        <time>2022-11-11T14:57:02Z</time>
      </trkpt>
      <trkpt lat="43.5101" lon="6.38131">
        <ele>224</ele>
        <time>2022-11-11T14:57:11Z</time>
      </trkpt>
      <trkpt lat="43.51001" lon="6.38128">
        <ele>226</ele>
        <time>2022-11-11T14:57:19Z</time>
      </trkpt>
      <trkpt lat="43.50982" lon="6.38122">
        <ele>231</ele>
        <time>2022-11-11T14:57:35Z</time>
      </trkpt>
      <trkpt lat="43.50965" lon="6.38111">
        <ele>234</ele>
        <time>2022-11-11T14:57:50Z</time>
      </trkpt>
      <trkpt lat="43.50948" lon="6.38098">
        <ele>232</ele>
        <time>2022-11-11T14:58:06Z</time>
      </trkpt>
      <trkpt lat="43.5094" lon="6.38092">
        <ele>230</ele>
        <time>2022-11-11T14:58:14Z</time>
      </trkpt>
      <trkpt lat="43.50925" lon="6.38076">
        <ele>232</ele>
        <time>2022-11-11T14:58:29Z</time>
      </trkpt>
      <trkpt lat="43.50918" lon="6.38067">
        <ele>230</ele>
        <time>2022-11-11T14:58:37Z</time>
      </trkpt>
      <trkpt lat="43.5091" lon="6.38058">
        <ele>233</ele>
        <time>2022-11-11T14:58:45Z</time>
      </trkpt>
      <trkpt lat="43.50888" lon="6.38035">
        <ele>238</ele>
        <time>2022-11-11T14:59:06Z</time>
      </trkpt>
      <trkpt lat="43.50881" lon="6.38027">
        <ele>236</ele>
        <time>2022-11-11T14:59:15Z</time>
      </trkpt>
      <trkpt lat="43.50873" lon="6.3802">
        <ele>236</ele>
        <time>2022-11-11T14:59:24Z</time>
      </trkpt>
      <trkpt lat="43.50842" lon="6.37992">
        <ele>235</ele>
        <time>2022-11-11T14:59:54Z</time>
      </trkpt>
      <trkpt lat="43.50835" lon="6.37985">
        <ele>237</ele>
        <time>2022-11-11T15:00:03Z</time>
      </trkpt>
      <trkpt lat="43.50825" lon="6.37984">
        <ele>237</ele>
        <time>2022-11-11T15:02:13Z</time>
      </trkpt>
      <trkpt lat="43.50797" lon="6.37981">
        <ele>234</ele>
        <time>2022-11-11T15:02:40Z</time>
      </trkpt>
      <trkpt lat="43.50788" lon="6.37983">
        <ele>232</ele>
        <time>2022-11-11T15:02:49Z</time>
      </trkpt>
      <trkpt lat="43.50768" lon="6.37986">
        <ele>232</ele>
        <time>2022-11-11T15:03:06Z</time>
      </trkpt>
      <trkpt lat="43.5075" lon="6.37994">
        <ele>230</ele>
        <time>2022-11-11T15:03:22Z</time>
      </trkpt>
      <trkpt lat="43.50741" lon="6.3799">
        <ele>228</ele>
        <time>2022-11-11T15:03:29Z</time>
      </trkpt>
      <trkpt lat="43.50733" lon="6.37983">
        <ele>227</ele>
        <time>2022-11-11T15:03:40Z</time>
      </trkpt>
      <trkpt lat="43.50725" lon="6.37989">
        <ele>227</ele>
        <time>2022-11-11T15:03:53Z</time>
      </trkpt>
      <trkpt lat="43.50717" lon="6.37994">
        <ele>234</ele>
        <time>2022-11-11T15:04:08Z</time>
      </trkpt>
      <trkpt lat="43.50709" lon="6.38001">
        <ele>236</ele>
        <time>2022-11-11T15:04:20Z</time>
      </trkpt>
      <trkpt lat="43.50701" lon="6.38008">
        <ele>239</ele>
        <time>2022-11-11T15:04:33Z</time>
      </trkpt>
      <trkpt lat="43.50691" lon="6.3801">
        <ele>243</ele>
        <time>2022-11-11T15:04:42Z</time>
      </trkpt>
      <trkpt lat="43.50682" lon="6.38013">
        <ele>243</ele>
        <time>2022-11-11T15:04:51Z</time>
      </trkpt>
      <trkpt lat="43.50664" lon="6.3802">
        <ele>240</ele>
        <time>2022-11-11T15:05:12Z</time>
      </trkpt>
      <trkpt lat="43.50646" lon="6.38024">
        <ele>242</ele>
        <time>2022-11-11T15:05:31Z</time>
      </trkpt>
      <trkpt lat="43.50637" lon="6.38027">
        <ele>246</ele>
        <time>2022-11-11T15:05:42Z</time>
      </trkpt>
      <trkpt lat="43.50628" lon="6.3803">
        <ele>246</ele>
        <time>2022-11-11T15:05:55Z</time>
      </trkpt>
      <trkpt lat="43.50619" lon="6.38033">
        <ele>245</ele>
        <time>2022-11-11T15:06:08Z</time>
      </trkpt>
      <trkpt lat="43.50608" lon="6.38036">
        <ele>246</ele>
        <time>2022-11-11T15:06:22Z</time>
      </trkpt>
      <trkpt lat="43.5059" lon="6.38042">
        <ele>247</ele>
        <time>2022-11-11T15:06:43Z</time>
      </trkpt>
      <trkpt lat="43.50563" lon="6.38052">
        <ele>252</ele>
        <time>2022-11-11T15:07:20Z</time>
      </trkpt>
      <trkpt lat="43.50556" lon="6.38059">
        <ele>252</ele>
        <time>2022-11-11T15:07:35Z</time>
      </trkpt>
      <trkpt lat="43.50546" lon="6.3806">
        <ele>255</ele>
        <time>2022-11-11T15:07:42Z</time>
      </trkpt>
      <trkpt lat="43.50536" lon="6.3806">
        <ele>261</ele>
        <time>2022-11-11T15:07:58Z</time>
      </trkpt>
      <trkpt lat="43.50517" lon="6.3807">
        <ele>271</ele>
        <time>2022-11-11T15:08:14Z</time>
      </trkpt>
      <trkpt lat="43.50499" lon="6.38067">
        <ele>265</ele>
        <time>2022-11-11T15:08:42Z</time>
      </trkpt>
      <trkpt lat="43.50491" lon="6.3806">
        <ele>268</ele>
        <time>2022-11-11T15:08:55Z</time>
      </trkpt>
      <trkpt lat="43.50488" lon="6.38057">
        <ele>265</ele>
        <time>2022-11-11T15:14:49Z</time>
      </trkpt>
      <trkpt lat="43.5048" lon="6.38051">
        <ele>269</ele>
        <time>2022-11-11T15:17:43Z</time>
      </trkpt>
      <trkpt lat="43.5047" lon="6.38047">
        <ele>270</ele>
        <time>2022-11-11T15:17:57Z</time>
      </trkpt>
      <trkpt lat="43.50454" lon="6.38033">
        <ele>275</ele>
        <time>2022-11-11T15:18:29Z</time>
      </trkpt>
      <trkpt lat="43.50438" lon="6.38021">
        <ele>271</ele>
        <time>2022-11-11T15:18:48Z</time>
      </trkpt>
      <trkpt lat="43.5043" lon="6.38013">
        <ele>270</ele>
        <time>2022-11-11T15:18:59Z</time>
      </trkpt>
      <trkpt lat="43.50423" lon="6.38004">
        <ele>275</ele>
        <time>2022-11-11T15:19:14Z</time>
      </trkpt>
      <trkpt lat="43.50419" lon="6.37992">
        <ele>277</ele>
        <time>2022-11-11T15:19:27Z</time>
      </trkpt>
      <trkpt lat="43.5042" lon="6.37979">
        <ele>280</ele>
        <time>2022-11-11T15:19:53Z</time>
      </trkpt>
      <trkpt lat="43.50415" lon="6.37967">
        <ele>280</ele>
        <time>2022-11-11T15:20:06Z</time>
      </trkpt>
      <trkpt lat="43.50409" lon="6.37956">
        <ele>283</ele>
        <time>2022-11-11T15:20:16Z</time>
      </trkpt>
      <trkpt lat="43.50409" lon="6.37943">
        <ele>283</ele>
        <time>2022-11-11T15:20:27Z</time>
      </trkpt>
      <trkpt lat="43.50406" lon="6.37904">
        <ele>286</ele>
        <time>2022-11-11T15:20:58Z</time>
      </trkpt>
      <trkpt lat="43.50405" lon="6.37891">
        <ele>287</ele>
        <time>2022-11-11T15:21:06Z</time>
      </trkpt>
      <trkpt lat="43.50405" lon="6.37879">
        <ele>289</ele>
        <time>2022-11-11T15:21:17Z</time>
      </trkpt>
      <trkpt lat="43.50406" lon="6.37866">
        <ele>290</ele>
        <time>2022-11-11T15:21:28Z</time>
      </trkpt>
      <trkpt lat="43.5041" lon="6.3784">
        <ele>291</ele>
        <time>2022-11-11T15:21:50Z</time>
      </trkpt>
      <trkpt lat="43.50412" lon="6.37828">
        <ele>289</ele>
        <time>2022-11-11T15:22:01Z</time>
      </trkpt>
      <trkpt lat="43.50415" lon="6.37816">
        <ele>289</ele>
        <time>2022-11-11T15:22:12Z</time>
      </trkpt>
      <trkpt lat="43.50417" lon="6.37804">
        <ele>292</ele>
        <time>2022-11-11T15:22:27Z</time>
      </trkpt>
      <trkpt lat="43.50421" lon="6.3779">
        <ele>290</ele>
        <time>2022-11-11T15:22:36Z</time>
      </trkpt>
      <trkpt lat="43.50421" lon="6.37777">
        <ele>289</ele>
        <time>2022-11-11T15:22:45Z</time>
      </trkpt>
      <trkpt lat="43.50416" lon="6.37767">
        <ele>289</ele>
        <time>2022-11-11T15:22:58Z</time>
      </trkpt>
      <trkpt lat="43.50402" lon="6.37751">
        <ele>290</ele>
        <time>2022-11-11T15:23:21Z</time>
      </trkpt>
      <trkpt lat="43.50373" lon="6.3772">
        <ele>288</ele>
        <time>2022-11-11T15:23:55Z</time>
      </trkpt>
      <trkpt lat="43.50365" lon="6.37712">
        <ele>284</ele>
        <time>2022-11-11T15:24:00Z</time>
      </trkpt>
      <trkpt lat="43.50344" lon="6.37687">
        <ele>286</ele>
        <time>2022-11-11T15:24:34Z</time>
      </trkpt>
      <trkpt lat="43.50339" lon="6.37676">
        <ele>292</ele>
        <time>2022-11-11T15:26:38Z</time>
      </trkpt>
      <trkpt lat="43.50318" lon="6.37652">
        <ele>295</ele>
        <time>2022-11-11T15:27:15Z</time>
      </trkpt>
      <trkpt lat="43.50296" lon="6.37629">
        <ele>289</ele>
        <time>2022-11-11T15:27:51Z</time>
      </trkpt>
      <trkpt lat="43.50273" lon="6.37607">
        <ele>288</ele>
        <time>2022-11-11T15:28:32Z</time>
      </trkpt>
      <trkpt lat="43.50257" lon="6.37592">
        <ele>287</ele>
        <time>2022-11-11T15:29:01Z</time>
      </trkpt>
      <trkpt lat="43.50241" lon="6.37578">
        <ele>283</ele>
        <time>2022-11-11T15:29:28Z</time>
      </trkpt>
      <trkpt lat="43.50233" lon="6.37571">
        <ele>282</ele>
        <time>2022-11-11T15:29:38Z</time>
      </trkpt>
      <trkpt lat="43.50224" lon="6.37565">
        <ele>282</ele>
        <time>2022-11-11T15:29:47Z</time>
      </trkpt>
      <trkpt lat="43.50217" lon="6.37559">
        <ele>279</ele>
        <time>2022-11-11T15:29:57Z</time>
      </trkpt>
      <trkpt lat="43.50184" lon="6.37532">
        <ele>275</ele>
        <time>2022-11-11T15:30:33Z</time>
      </trkpt>
      <trkpt lat="43.50175" lon="6.37526">
        <ele>276</ele>
        <time>2022-11-11T15:30:41Z</time>
      </trkpt>
      <trkpt lat="43.50168" lon="6.37519">
        <ele>276</ele>
        <time>2022-11-11T15:30:50Z</time>
      </trkpt>
      <trkpt lat="43.50136" lon="6.37491">
        <ele>274</ele>
        <time>2022-11-11T15:31:23Z</time>
      </trkpt>
      <trkpt lat="43.50128" lon="6.37483">
        <ele>273</ele>
        <time>2022-11-11T15:31:33Z</time>
      </trkpt>
      <trkpt lat="43.50125" lon="6.37469">
        <ele>273</ele>
        <time>2022-11-11T15:31:41Z</time>
      </trkpt>
      <trkpt lat="43.5012" lon="6.37458">
        <ele>276</ele>
        <time>2022-11-11T15:31:55Z</time>
      </trkpt>
      <trkpt lat="43.5012" lon="6.37432">
        <ele>278</ele>
        <time>2022-11-11T15:32:15Z</time>
      </trkpt>
      <trkpt lat="43.50122" lon="6.37418">
        <ele>280</ele>
        <time>2022-11-11T15:32:25Z</time>
      </trkpt>
      <trkpt lat="43.50123" lon="6.37393">
        <ele>279</ele>
        <time>2022-11-11T15:32:42Z</time>
      </trkpt>
      <trkpt lat="43.50133" lon="6.37357">
        <ele>279</ele>
        <time>2022-11-11T15:33:08Z</time>
      </trkpt>
      <trkpt lat="43.50133" lon="6.37344">
        <ele>277</ele>
        <time>2022-11-11T15:33:16Z</time>
      </trkpt>
      <trkpt lat="43.50128" lon="6.37335">
        <ele>276</ele>
        <time>2022-11-11T15:33:24Z</time>
      </trkpt>
      <trkpt lat="43.50123" lon="6.37332">
        <ele>272</ele>
        <time>2022-11-11T15:33:29Z</time>
      </trkpt>
      <trkpt lat="43.50117" lon="6.37327">
        <ele>271</ele>
        <time>2022-11-11T15:33:35Z</time>
      </trkpt>
      <trkpt lat="43.50113" lon="6.37328">
        <ele>271</ele>
        <time>2022-11-11T15:33:39Z</time>
      </trkpt>
      <trkpt lat="43.5011" lon="6.37331">
        <ele>271</ele>
        <time>2022-11-11T15:33:43Z</time>
      </trkpt>
      <trkpt lat="43.50106" lon="6.37334">
        <ele>273</ele>
        <time>2022-11-11T15:33:47Z</time>
      </trkpt>
      <trkpt lat="43.50103" lon="6.37337">
        <ele>272</ele>
        <time>2022-11-11T15:33:51Z</time>
      </trkpt>
      <trkpt lat="43.501" lon="6.37342">
        <ele>272</ele>
        <time>2022-11-11T15:33:55Z</time>
      </trkpt>
      <trkpt lat="43.50097" lon="6.37343">
        <ele>272</ele>
        <time>2022-11-11T15:33:59Z</time>
      </trkpt>
      <trkpt lat="43.50093" lon="6.3734">
        <ele>274</ele>
        <time>2022-11-11T15:34:04Z</time>
      </trkpt>
      <trkpt lat="43.5009" lon="6.37338">
        <ele>276</ele>
        <time>2022-11-11T15:34:08Z</time>
      </trkpt>
      <trkpt lat="43.50086" lon="6.37338">
        <ele>277</ele>
        <time>2022-11-11T15:34:12Z</time>
      </trkpt>
    </trkseg>
  </trk>
</gpx>